sensor_id;sensor_type;location;lat;lon;timestamp;pressure;altitude;pressure_sealevel;temperature;humidity
6194;BME280;3130;41.564;23.280;2023-09-19T00:00:19;98981.66;;;19.03;nan
6194;BME280;3130;41.564;23.280;2023-09-19T00:02:52;99041.06;;;19.34;nan
6194;BME280;3130;41.564;23.280;2023-09-19T00:05:19;99074.16;;;19.42;nan
6194;BME280;3130;41.564;23.280;2023-09-19T00:07:50;99079.44;;;19.32;nan
6194;BME280;3130;41.564;23.280;2023-09-19T00:10:19;99020.44;;;18.87;nan
6194;BME280;3130;41.564;23.280;2023-09-19T00:12:47;99087.28;;;19.23;nan
6194;BME280;3130;41.564;23.280;2023-09-19T00:15:16;99082.63;;;19.17;nan
6194;BME280;3130;41.564;23.280;2023-09-19T00:17:44;99075.63;;;18.99;nan
6194;BME280;3130;41.564;23.280;2023-09-19T00:20:13;99085.38;;;18.97;nan
6194;BME280;3130;41.564;23.280;2023-09-19T00:22:43;99093.97;;;18.97;nan
6194;BME280;3130;41.564;23.280;2023-09-19T00:25:11;99067.22;;;18.78;nan
6194;BME280;3130;41.564;23.280;2023-09-19T00:27:41;99094.53;;;18.91;nan
6194;BME280;3130;41.564;23.280;2023-09-19T00:30:11;99100.03;;;18.88;nan
6194;BME280;3130;41.564;23.280;2023-09-19T00:32:47;99094.97;;;18.87;nan
6194;BME280;3130;41.564;23.280;2023-09-19T00:35:15;99093.47;;;18.84;nan
6194;BME280;3130;41.564;23.280;2023-09-19T00:37:42;99046.19;;;18.52;nan
6194;BME280;3130;41.564;23.280;2023-09-19T00:40:10;99066.13;;;18.71;nan
6194;BME280;3130;41.564;23.280;2023-09-19T00:42:39;99090.03;;;18.93;nan
6194;BME280;3130;41.564;23.280;2023-09-19T00:45:07;99076.34;;;18.82;nan
6194;BME280;3130;41.564;23.280;2023-09-19T00:47:37;98996.88;;;18.24;nan
6194;BME280;3130;41.564;23.280;2023-09-19T00:50:08;99073.25;;;18.59;nan
6194;BME280;3130;41.564;23.280;2023-09-19T00:52:36;99015.53;;;18.18;nan
6194;BME280;3130;41.564;23.280;2023-09-19T00:55:06;99072.81;;;18.54;nan
6194;BME280;3130;41.564;23.280;2023-09-19T00:57:34;99031.84;;;18.29;nan
6194;BME280;3130;41.564;23.280;2023-09-19T01:00:05;99050.13;;;18.37;nan
6194;BME280;3130;41.564;23.280;2023-09-19T01:02:34;99074.63;;;18.54;nan
6194;BME280;3130;41.564;23.280;2023-09-19T01:05:03;99057.66;;;18.59;nan
6194;BME280;3130;41.564;23.280;2023-09-19T01:07:33;99050.78;;;18.77;nan
6194;BME280;3130;41.564;23.280;2023-09-19T01:10:00;99090.41;;;19.27;nan
6194;BME280;3130;41.564;23.280;2023-09-19T01:12:44;99057.00;;;19.31;nan
6194;BME280;3130;41.564;23.280;2023-09-19T01:15:18;99096.13;;;19.66;nan
6194;BME280;3130;41.564;23.280;2023-09-19T01:17:52;99084.44;;;19.70;nan
6194;BME280;3130;41.564;23.280;2023-09-19T01:20:33;99086.06;;;19.81;nan
6194;BME280;3130;41.564;23.280;2023-09-19T01:23:12;99089.69;;;19.34;nan
6194;BME280;3130;41.564;23.280;2023-09-19T01:28:52;99089.06;;;19.13;nan
6194;BME280;3130;41.564;23.280;2023-09-19T01:31:23;99067.72;;;19.00;nan
6194;BME280;3130;41.564;23.280;2023-09-19T01:33:56;99080.59;;;18.92;nan
6194;BME280;3130;41.564;23.280;2023-09-19T01:36:29;99065.31;;;18.70;nan
6194;BME280;3130;41.564;23.280;2023-09-19T01:38:57;99059.44;;;18.59;nan
6194;BME280;3130;41.564;23.280;2023-09-19T01:41:53;98999.53;;;18.22;nan
6194;BME280;3130;41.564;23.280;2023-09-19T01:44:25;99048.78;;;18.33;nan
6194;BME280;3130;41.564;23.280;2023-09-19T01:47:02;99048.63;;;18.25;nan
6194;BME280;3130;41.564;23.280;2023-09-19T01:49:37;99061.47;;;18.18;nan
6194;BME280;3130;41.564;23.280;2023-09-19T01:52:10;99044.50;;;17.95;nan
6194;BME280;3130;41.564;23.280;2023-09-19T01:54:46;99033.94;;;17.77;nan
6194;BME280;3130;41.564;23.280;2023-09-19T01:57:22;98955.75;;;17.33;nan
6194;BME280;3130;41.564;23.280;2023-09-19T01:59:59;99003.06;;;17.65;nan
6194;BME280;3130;41.564;23.280;2023-09-19T02:02:34;99050.34;;;17.87;nan
6194;BME280;3130;41.564;23.280;2023-09-19T02:05:03;99006.59;;;17.54;nan
6194;BME280;3130;41.564;23.280;2023-09-19T02:07:32;99047.47;;;17.81;nan
6194;BME280;3130;41.564;23.280;2023-09-19T02:10:00;99049.13;;;17.82;nan
6194;BME280;3130;41.564;23.280;2023-09-19T02:12:29;98916.09;;;17.03;nan
6194;BME280;3130;41.564;23.280;2023-09-19T02:14:56;99030.38;;;17.78;nan
6194;BME280;3130;41.564;23.280;2023-09-19T02:17:24;98998.00;;;17.63;nan
6194;BME280;3130;41.564;23.280;2023-09-19T02:19:54;99045.88;;;17.99;nan
6194;BME280;3130;41.564;23.280;2023-09-19T02:22:22;99051.06;;;18.18;nan
6194;BME280;3130;41.564;23.280;2023-09-19T02:24:50;99017.31;;;18.08;nan
6194;BME280;3130;41.564;23.280;2023-09-19T02:27:18;99027.28;;;18.13;nan
6194;BME280;3130;41.564;23.280;2023-09-19T02:29:45;98958.56;;;17.69;nan
6194;BME280;3130;41.564;23.280;2023-09-19T02:32:13;99030.00;;;18.11;nan
6194;BME280;3130;41.564;23.280;2023-09-19T02:34:40;99029.03;;;18.03;nan
6194;BME280;3130;41.564;23.280;2023-09-19T02:37:09;99032.72;;;17.91;nan
6194;BME280;3130;41.564;23.280;2023-09-19T02:39:38;99034.06;;;17.76;nan
6194;BME280;3130;41.564;23.280;2023-09-19T02:42:06;98976.22;;;17.36;nan
6194;BME280;3130;41.564;23.280;2023-09-19T02:44:33;99031.19;;;17.69;nan
6194;BME280;3130;41.564;23.280;2023-09-19T02:47:01;99003.38;;;17.41;nan
6194;BME280;3130;41.564;23.280;2023-09-19T02:49:28;99029.19;;;17.43;nan
6194;BME280;3130;41.564;23.280;2023-09-19T02:51:55;99035.59;;;17.39;nan
6194;BME280;3130;41.564;23.280;2023-09-19T02:54:25;99036.09;;;17.33;nan
6194;BME280;3130;41.564;23.280;2023-09-19T02:56:53;98959.78;;;16.87;nan
6194;BME280;3130;41.564;23.280;2023-09-19T02:59:21;99009.13;;;17.15;nan
6194;BME280;3130;41.564;23.280;2023-09-19T03:01:48;99011.84;;;17.14;nan
6194;BME280;3130;41.564;23.280;2023-09-19T03:04:16;99038.25;;;17.28;nan
6194;BME280;3130;41.564;23.280;2023-09-19T03:06:45;99033.03;;;17.18;nan
6194;BME280;3130;41.564;23.280;2023-09-19T03:09:14;99041.75;;;17.17;nan
6194;BME280;3130;41.564;23.280;2023-09-19T03:11:43;99039.41;;;17.15;nan
6194;BME280;3130;41.564;23.280;2023-09-19T03:14:12;99041.47;;;17.11;nan
6194;BME280;3130;41.564;23.280;2023-09-19T03:16:39;99038.88;;;17.11;nan
6194;BME280;3130;41.564;23.280;2023-09-19T03:19:07;99042.00;;;17.15;nan
6194;BME280;3130;41.564;23.280;2023-09-19T03:21:36;98960.31;;;16.60;nan
6194;BME280;3130;41.564;23.280;2023-09-19T03:24:05;99022.56;;;17.00;nan
6194;BME280;3130;41.564;23.280;2023-09-19T03:26:32;99043.22;;;17.11;nan
6194;BME280;3130;41.564;23.280;2023-09-19T03:29:03;99043.34;;;17.09;nan
6194;BME280;3130;41.564;23.280;2023-09-19T03:31:33;98894.53;;;16.22;nan
6194;BME280;3130;41.564;23.280;2023-09-19T03:34:02;99043.72;;;17.05;nan
6194;BME280;3130;41.564;23.280;2023-09-19T03:36:30;99027.00;;;16.88;nan
6194;BME280;3130;41.564;23.280;2023-09-19T03:38:58;99042.91;;;17.04;nan
6194;BME280;3130;41.564;23.280;2023-09-19T03:41:25;98937.28;;;16.37;nan
6194;BME280;3130;41.564;23.280;2023-09-19T03:43:52;99042.34;;;17.01;nan
6194;BME280;3130;41.564;23.280;2023-09-19T03:46:21;98969.56;;;16.53;nan
6194;BME280;3130;41.564;23.280;2023-09-19T03:48:48;98965.03;;;16.46;nan
6194;BME280;3130;41.564;23.280;2023-09-19T03:51:15;99034.53;;;16.91;nan
6194;BME280;3130;41.564;23.280;2023-09-19T03:53:43;99045.06;;;16.99;nan
6194;BME280;3130;41.564;23.280;2023-09-19T03:56:10;99039.19;;;16.97;nan
6194;BME280;3130;41.564;23.280;2023-09-19T03:58:37;99043.56;;;16.97;nan
6194;BME280;3130;41.564;23.280;2023-09-19T04:01:05;99051.06;;;17.00;nan
6194;BME280;3130;41.564;23.280;2023-09-19T04:03:33;99047.53;;;17.01;nan
6194;BME280;3130;41.564;23.280;2023-09-19T04:06:11;99060.91;;;17.06;nan
6194;BME280;3130;41.564;23.280;2023-09-19T04:08:38;99053.41;;;17.03;nan
6194;BME280;3130;41.564;23.280;2023-09-19T04:11:06;99062.69;;;17.05;nan
6194;BME280;3130;41.564;23.280;2023-09-19T04:13:33;99064.19;;;17.08;nan
6194;BME280;3130;41.564;23.280;2023-09-19T04:16:00;99065.44;;;17.04;nan
6194;BME280;3130;41.564;23.280;2023-09-19T04:18:29;99074.25;;;17.01;nan
6194;BME280;3130;41.564;23.280;2023-09-19T04:21:00;99076.00;;;17.21;nan
6194;BME280;3130;41.564;23.280;2023-09-19T04:23:31;99078.16;;;17.16;nan
6194;BME280;3130;41.564;23.280;2023-09-19T04:25:58;99083.97;;;17.09;nan
6194;BME280;3130;41.564;23.280;2023-09-19T04:28:25;99095.13;;;17.00;nan
6194;BME280;3130;41.564;23.280;2023-09-19T04:30:53;99089.09;;;16.99;nan
6194;BME280;3130;41.564;23.280;2023-09-19T04:33:21;99075.72;;;16.94;nan
6194;BME280;3130;41.564;23.280;2023-09-19T04:35:49;99099.22;;;17.02;nan
6194;BME280;3130;41.564;23.280;2023-09-19T04:38:18;99095.28;;;17.08;nan
6194;BME280;3130;41.564;23.280;2023-09-19T04:40:45;99093.00;;;17.14;nan
6194;BME280;3130;41.564;23.280;2023-09-19T04:43:13;99093.44;;;17.19;nan
6194;BME280;3130;41.564;23.280;2023-09-19T04:45:41;99096.00;;;17.30;nan
6194;BME280;3130;41.564;23.280;2023-09-19T04:48:08;99100.47;;;17.48;nan
6194;BME280;3130;41.564;23.280;2023-09-19T04:50:36;99062.34;;;17.19;nan
6194;BME280;3130;41.564;23.280;2023-09-19T04:53:04;99096.25;;;17.27;nan
6194;BME280;3130;41.564;23.280;2023-09-19T04:55:34;99087.28;;;17.11;nan
6194;BME280;3130;41.564;23.280;2023-09-19T04:58:01;99104.66;;;17.19;nan
6194;BME280;3130;41.564;23.280;2023-09-19T05:00:29;99105.06;;;17.24;nan
6194;BME280;3130;41.564;23.280;2023-09-19T05:03:00;99072.97;;;17.16;nan
6194;BME280;3130;41.564;23.280;2023-09-19T05:05:30;99097.03;;;17.27;nan
6194;BME280;3130;41.564;23.280;2023-09-19T05:07:57;99081.84;;;17.14;nan
6194;BME280;3130;41.564;23.280;2023-09-19T05:10:24;99088.53;;;17.16;nan
6194;BME280;3130;41.564;23.280;2023-09-19T05:12:55;99066.97;;;17.16;nan
6194;BME280;3130;41.564;23.280;2023-09-19T05:15:22;99110.53;;;17.42;nan
6194;BME280;3130;41.564;23.280;2023-09-19T05:17:50;99113.69;;;17.45;nan
6194;BME280;3130;41.564;23.280;2023-09-19T05:20:17;99119.94;;;17.43;nan
6194;BME280;3130;41.564;23.280;2023-09-19T05:22:50;99046.31;;;17.05;nan
6194;BME280;3130;41.564;23.280;2023-09-19T05:25:24;99110.03;;;17.57;nan
6194;BME280;3130;41.564;23.280;2023-09-19T05:27:54;99078.63;;;17.51;nan
6194;BME280;3130;41.564;23.280;2023-09-19T05:30:23;99110.03;;;17.87;nan
6194;BME280;3130;41.564;23.280;2023-09-19T05:32:50;99079.28;;;17.92;nan
6194;BME280;3130;41.564;23.280;2023-09-19T05:35:18;99081.69;;;18.23;nan
6194;BME280;3130;41.564;23.280;2023-09-19T05:37:47;99103.03;;;18.65;nan
6194;BME280;3130;41.564;23.280;2023-09-19T05:40:16;99096.59;;;18.78;nan
6194;BME280;3130;41.564;23.280;2023-09-19T05:42:43;98999.72;;;18.30;nan
6194;BME280;3130;41.564;23.280;2023-09-19T05:45:13;99100.13;;;19.06;nan
6194;BME280;3130;41.564;23.280;2023-09-19T05:47:44;99105.06;;;19.09;nan
6194;BME280;3130;41.564;23.280;2023-09-19T05:50:12;99105.31;;;19.25;nan
6194;BME280;3130;41.564;23.280;2023-09-19T05:52:40;99085.16;;;19.36;nan
6194;BME280;3130;41.564;23.280;2023-09-19T05:55:09;99097.69;;;19.50;nan
6194;BME280;3130;41.564;23.280;2023-09-19T05:57:37;99084.09;;;19.65;nan
6194;BME280;3130;41.564;23.280;2023-09-19T06:00:06;99088.47;;;19.65;nan
6194;BME280;3130;41.564;23.280;2023-09-19T06:02:37;99063.72;;;19.51;nan
6194;BME280;3130;41.564;23.280;2023-09-19T06:05:06;99084.75;;;19.94;nan
6194;BME280;3130;41.564;23.280;2023-09-19T06:07:36;99085.91;;;19.82;nan
6194;BME280;3130;41.564;23.280;2023-09-19T06:10:03;99060.41;;;19.86;nan
6194;BME280;3130;41.564;23.280;2023-09-19T06:12:33;99070.44;;;20.08;nan
6194;BME280;3130;41.564;23.280;2023-09-19T06:15:03;98991.50;;;19.63;nan
6194;BME280;3130;41.564;23.280;2023-09-19T06:17:34;99081.94;;;20.32;nan
6194;BME280;3130;41.564;23.280;2023-09-19T06:20:06;99079.94;;;20.43;nan
6194;BME280;3130;41.564;23.280;2023-09-19T06:22:38;99088.72;;;20.42;nan
6194;BME280;3130;41.564;23.280;2023-09-19T06:25:07;99065.09;;;20.44;nan
6194;BME280;3130;41.564;23.280;2023-09-19T06:27:37;99071.94;;;20.62;nan
6194;BME280;3130;41.564;23.280;2023-09-19T06:30:07;99094.16;;;21.09;nan
6194;BME280;3130;41.564;23.280;2023-09-19T06:32:35;99080.13;;;21.35;nan
6194;BME280;3130;41.564;23.280;2023-09-19T06:35:04;99038.09;;;21.46;nan
6194;BME280;3130;41.564;23.280;2023-09-19T06:37:34;99074.66;;;21.80;nan
6194;BME280;3130;41.564;23.280;2023-09-19T06:40:06;99085.69;;;22.07;nan
6194;BME280;3130;41.564;23.280;2023-09-19T06:42:34;99064.88;;;22.39;nan
6194;BME280;3130;41.564;23.280;2023-09-19T06:45:04;99075.69;;;22.76;nan
6194;BME280;3130;41.564;23.280;2023-09-19T06:47:31;99071.56;;;23.05;nan
6194;BME280;3130;41.564;23.280;2023-09-19T06:49:58;99074.66;;;23.33;nan
6194;BME280;3130;41.564;23.280;2023-09-19T06:52:29;99076.00;;;23.67;nan
6194;BME280;3130;41.564;23.280;2023-09-19T06:54:57;99078.66;;;24.05;nan
6194;BME280;3130;41.564;23.280;2023-09-19T06:57:25;99064.78;;;24.19;nan
6194;BME280;3130;41.564;23.280;2023-09-19T06:59:52;99081.38;;;24.42;nan
6194;BME280;3130;41.564;23.280;2023-09-19T07:02:19;99080.34;;;24.51;nan
6194;BME280;3130;41.564;23.280;2023-09-19T07:04:47;99080.66;;;24.70;nan
6194;BME280;3130;41.564;23.280;2023-09-19T07:07:15;99077.66;;;24.96;nan
6194;BME280;3130;41.564;23.280;2023-09-19T07:09:44;99048.72;;;25.04;nan
6194;BME280;3130;41.564;23.280;2023-09-19T07:12:11;99008.59;;;24.81;nan
6194;BME280;3130;41.564;23.280;2023-09-19T07:14:39;98986.00;;;24.94;nan
6194;BME280;3130;41.564;23.280;2023-09-19T07:17:07;99081.56;;;25.80;nan
6194;BME280;3130;41.564;23.280;2023-09-19T07:19:34;99080.06;;;26.06;nan
6194;BME280;3130;41.564;23.280;2023-09-19T07:22:01;99067.75;;;26.07;nan
6194;BME280;3130;41.564;23.280;2023-09-19T07:24:29;99062.50;;;26.28;nan
6194;BME280;3130;41.564;23.280;2023-09-19T07:26:58;98997.22;;;25.96;nan
6194;BME280;3130;41.564;23.280;2023-09-19T07:29:25;99057.72;;;26.52;nan
6194;BME280;3130;41.564;23.280;2023-09-19T07:31:53;99079.50;;;26.88;nan
6194;BME280;3130;41.564;23.280;2023-09-19T07:34:20;99080.97;;;27.18;nan
6194;BME280;3130;41.564;23.280;2023-09-19T07:36:48;99077.50;;;27.51;nan
6194;BME280;3130;41.564;23.280;2023-09-19T07:39:16;99073.88;;;27.86;nan
6194;BME280;3130;41.564;23.280;2023-09-19T07:41:43;99068.53;;;28.20;nan
6194;BME280;3130;41.564;23.280;2023-09-19T07:44:11;98979.41;;;29.12;nan
6194;BME280;3130;41.564;23.280;2023-09-19T07:46:38;99054.78;;;32.10;nan
6194;BME280;3130;41.564;23.280;2023-09-19T07:49:06;99017.56;;;34.16;nan
6194;BME280;3130;41.564;23.280;2023-09-19T07:51:33;99060.09;;;37.08;nan
6194;BME280;3130;41.564;23.280;2023-09-19T07:54:01;99014.63;;;38.90;nan
6194;BME280;3130;41.564;23.280;2023-09-19T07:56:29;99053.28;;;40.35;nan
6194;BME280;3130;41.564;23.280;2023-09-19T07:58:57;99071.13;;;40.98;nan
6194;BME280;3130;41.564;23.280;2023-09-19T08:01:26;99059.34;;;42.29;nan
6194;BME280;3130;41.564;23.280;2023-09-19T08:03:54;99057.38;;;42.53;nan
6194;BME280;3130;41.564;23.280;2023-09-19T08:06:21;99056.44;;;42.44;nan
6194;BME280;3130;41.564;23.280;2023-09-19T08:08:51;99005.34;;;40.47;nan
6194;BME280;3130;41.564;23.280;2023-09-19T08:11:20;99033.03;;;38.22;nan
6194;BME280;3130;41.564;23.280;2023-09-19T08:13:50;99051.91;;;36.56;nan
6194;BME280;3130;41.564;23.280;2023-09-19T08:16:18;99043.13;;;35.27;nan
6194;BME280;3130;41.564;23.280;2023-09-19T08:18:49;99002.59;;;33.99;nan
6194;BME280;3130;41.564;23.280;2023-09-19T08:21:20;99036.06;;;33.33;nan
6194;BME280;3130;41.564;23.280;2023-09-19T08:23:49;99030.56;;;32.59;nan
6194;BME280;3130;41.564;23.280;2023-09-19T08:26:16;99052.75;;;31.77;nan
6194;BME280;3130;41.564;23.280;2023-09-19T08:28:45;99047.81;;;30.78;nan
6194;BME280;3130;41.564;23.280;2023-09-19T08:31:13;98972.97;;;29.59;nan
6194;BME280;3130;41.564;23.280;2023-09-19T08:33:42;99048.81;;;29.71;nan
6194;BME280;3130;41.564;23.280;2023-09-19T08:36:11;99040.97;;;29.32;nan
6194;BME280;3130;41.564;23.280;2023-09-19T08:38:39;99042.84;;;28.99;nan
6194;BME280;3130;41.564;23.280;2023-09-19T08:41:07;99010.13;;;28.55;nan
6194;BME280;3130;41.564;23.280;2023-09-19T08:43:35;99034.06;;;28.47;nan
6194;BME280;3130;41.564;23.280;2023-09-19T08:46:09;99046.06;;;28.37;nan
6194;BME280;3130;41.564;23.280;2023-09-19T08:48:39;98978.75;;;27.81;nan
6194;BME280;3130;41.564;23.280;2023-09-19T08:51:18;99029.13;;;28.18;nan
6194;BME280;3130;41.564;23.280;2023-09-19T08:53:51;99020.66;;;28.29;nan
6194;BME280;3130;41.564;23.280;2023-09-19T08:56:18;99009.53;;;28.34;nan
6194;BME280;3130;41.564;23.280;2023-09-19T08:58:51;98989.03;;;28.36;nan
6194;BME280;3130;41.564;23.280;2023-09-19T09:01:20;99015.00;;;28.58;nan
6194;BME280;3130;41.564;23.280;2023-09-19T09:03:51;98969.72;;;28.29;nan
6194;BME280;3130;41.564;23.280;2023-09-19T09:06:21;99015.81;;;28.46;nan
6194;BME280;3130;41.564;23.280;2023-09-19T09:08:50;98943.88;;;27.92;nan
6194;BME280;3130;41.564;23.280;2023-09-19T09:11:18;99013.50;;;28.10;nan
6194;BME280;3130;41.564;23.280;2023-09-19T09:13:46;99012.84;;;27.95;nan
6194;BME280;3130;41.564;23.280;2023-09-19T09:16:14;99010.19;;;27.82;nan
6194;BME280;3130;41.564;23.280;2023-09-19T09:18:43;99012.00;;;27.82;nan
6194;BME280;3130;41.564;23.280;2023-09-19T09:21:11;98967.59;;;27.79;nan
6194;BME280;3130;41.564;23.280;2023-09-19T09:23:42;99000.72;;;28.20;nan
6194;BME280;3130;41.564;23.280;2023-09-19T09:26:13;99000.09;;;27.99;nan
6194;BME280;3130;41.564;23.280;2023-09-19T09:28:45;98996.22;;;27.88;nan
6194;BME280;3130;41.564;23.280;2023-09-19T09:31:22;98936.69;;;27.60;nan
6194;BME280;3130;41.564;23.280;2023-09-19T09:33:53;99009.66;;;28.13;nan
6194;BME280;3130;41.564;23.280;2023-09-19T09:36:33;98997.88;;;28.15;nan
6194;BME280;3130;41.564;23.280;2023-09-19T09:39:04;99004.59;;;28.18;nan
6194;BME280;3130;41.564;23.280;2023-09-19T09:41:43;98923.56;;;27.79;nan
6194;BME280;3130;41.564;23.280;2023-09-19T09:44:15;98994.25;;;28.29;nan
6194;BME280;3130;41.564;23.280;2023-09-19T09:46:45;98991.59;;;28.23;nan
6194;BME280;3130;41.564;23.280;2023-09-19T09:49:47;98951.00;;;27.98;nan
6194;BME280;3130;41.564;23.280;2023-09-19T09:52:20;98975.34;;;28.13;nan
6194;BME280;3130;41.564;23.280;2023-09-19T09:55:00;98982.91;;;28.29;nan
6194;BME280;3130;41.564;23.280;2023-09-19T09:57:31;98967.22;;;28.21;nan
6194;BME280;3130;41.564;23.280;2023-09-19T09:59:59;98928.72;;;28.20;nan
6194;BME280;3130;41.564;23.280;2023-09-19T10:02:42;98957.94;;;28.57;nan
6194;BME280;3130;41.564;23.280;2023-09-19T10:05:14;98954.50;;;28.63;nan
6194;BME280;3130;41.564;23.280;2023-09-19T10:07:47;98919.19;;;28.45;nan
6194;BME280;3130;41.564;23.280;2023-09-19T10:10:31;98947.81;;;28.48;nan
6194;BME280;3130;41.564;23.280;2023-09-19T10:13:10;98953.28;;;28.66;nan
6194;BME280;3130;41.564;23.280;2023-09-19T10:15:42;98934.00;;;28.52;nan
6194;BME280;3130;41.564;23.280;2023-09-19T10:18:20;98940.28;;;28.71;nan
6194;BME280;3130;41.564;23.280;2023-09-19T10:20:48;98934.56;;;28.73;nan
6194;BME280;3130;41.564;23.280;2023-09-19T10:23:18;98891.75;;;28.59;nan
6194;BME280;3130;41.564;23.280;2023-09-19T10:25:50;98929.09;;;28.69;nan
6194;BME280;3130;41.564;23.280;2023-09-19T10:28:19;98921.00;;;28.51;nan
6194;BME280;3130;41.564;23.280;2023-09-19T10:30:49;98922.22;;;28.42;nan
6194;BME280;3130;41.564;23.280;2023-09-19T10:33:18;98916.16;;;28.35;nan
6194;BME280;3130;41.564;23.280;2023-09-19T10:35:48;98912.66;;;28.21;nan
6194;BME280;3130;41.564;23.280;2023-09-19T10:38:18;98904.16;;;28.26;nan
6194;BME280;3130;41.564;23.280;2023-09-19T10:40:51;98875.34;;;28.18;nan
6194;BME280;3130;41.564;23.280;2023-09-19T10:43:20;98905.38;;;28.43;nan
6194;BME280;3130;41.564;23.280;2023-09-19T10:45:49;98900.91;;;28.43;nan
6194;BME280;3130;41.564;23.280;2023-09-19T10:48:18;98868.44;;;28.23;nan
6194;BME280;3130;41.564;23.280;2023-09-19T10:50:48;98890.38;;;28.37;nan
6194;BME280;3130;41.564;23.280;2023-09-19T10:53:18;98885.28;;;28.29;nan
6194;BME280;3130;41.564;23.280;2023-09-19T10:55:52;98841.47;;;28.02;nan
6194;BME280;3130;41.564;23.280;2023-09-19T10:58:28;98886.91;;;28.43;nan
6194;BME280;3130;41.564;23.280;2023-09-19T11:00:57;98877.97;;;28.44;nan
6194;BME280;3130;41.564;23.280;2023-09-19T11:03:28;98850.97;;;28.22;nan
6194;BME280;3130;41.564;23.280;2023-09-19T11:06:05;98874.53;;;28.43;nan
6194;BME280;3130;41.564;23.280;2023-09-19T11:08:54;98872.25;;;28.60;nan
6194;BME280;3130;41.564;23.280;2023-09-19T11:11:44;98858.59;;;28.75;nan
6194;BME280;3130;41.564;23.280;2023-09-19T11:14:40;98867.50;;;29.00;nan
6194;BME280;3130;41.564;23.280;2023-09-19T11:17:42;98878.25;;;29.05;nan
6194;BME280;3130;41.564;23.280;2023-09-19T11:20:24;98868.63;;;29.17;nan
6194;BME280;3130;41.564;23.280;2023-09-19T11:23:18;98865.13;;;29.30;nan
6194;BME280;3130;41.564;23.280;2023-09-19T11:25:49;98837.88;;;29.29;nan
6194;BME280;3130;41.564;23.280;2023-09-19T11:28:30;98841.91;;;29.38;nan
6194;BME280;3130;41.564;23.280;2023-09-19T11:30:58;98849.75;;;29.58;nan
6194;BME280;3130;41.564;23.280;2023-09-19T11:33:26;98843.22;;;29.60;nan
6194;BME280;3130;41.564;23.280;2023-09-19T11:36:02;98847.31;;;29.56;nan
6194;BME280;3130;41.564;23.280;2023-09-19T11:41:40;98797.41;;;29.66;nan
6194;BME280;3130;41.564;23.280;2023-09-19T11:44:33;98813.88;;;29.92;nan
6194;BME280;3130;41.564;23.280;2023-09-19T11:47:04;98812.66;;;29.95;nan
6194;BME280;3130;41.564;23.280;2023-09-19T11:49:32;98787.19;;;29.70;nan
6194;BME280;3130;41.564;23.280;2023-09-19T11:52:01;98784.13;;;29.73;nan
6194;BME280;3130;41.564;23.280;2023-09-19T11:54:31;98793.38;;;29.88;nan
6194;BME280;3130;41.564;23.280;2023-09-19T11:57:00;98779.91;;;29.89;nan
6194;BME280;3130;41.564;23.280;2023-09-19T11:59:29;98673.66;;;29.26;nan
6194;BME280;3130;41.564;23.280;2023-09-19T12:02:01;98784.75;;;29.99;nan
6194;BME280;3130;41.564;23.280;2023-09-19T12:04:35;98754.56;;;29.82;nan
6194;BME280;3130;41.564;23.280;2023-09-19T12:07:05;98779.84;;;30.02;nan
6194;BME280;3130;41.564;23.280;2023-09-19T12:09:39;98757.19;;;29.82;nan
6194;BME280;3130;41.564;23.280;2023-09-19T12:12:10;98649.41;;;29.11;nan
6194;BME280;3130;41.564;23.280;2023-09-19T12:14:47;98752.78;;;29.76;nan
6194;BME280;3130;41.564;23.280;2023-09-19T12:17:17;98774.53;;;29.78;nan
6194;BME280;3130;41.564;23.280;2023-09-19T12:19:50;98766.03;;;29.70;nan
6194;BME280;3130;41.564;23.280;2023-09-19T12:22:18;98731.06;;;29.50;nan
6194;BME280;3130;41.564;23.280;2023-09-19T12:24:47;98765.63;;;29.73;nan
6194;BME280;3130;41.564;23.280;2023-09-19T12:27:15;98741.38;;;29.76;nan
6194;BME280;3130;41.564;23.280;2023-09-19T12:29:43;98755.47;;;29.94;nan
6194;BME280;3130;41.564;23.280;2023-09-19T12:32:11;98732.31;;;29.89;nan
6194;BME280;3130;41.564;23.280;2023-09-19T12:34:41;98749.84;;;30.08;nan
6194;BME280;3130;41.564;23.280;2023-09-19T12:37:10;98747.78;;;30.10;nan
6194;BME280;3130;41.564;23.280;2023-09-19T12:39:47;98723.81;;;30.05;nan
6194;BME280;3130;41.564;23.280;2023-09-19T12:42:18;98722.34;;;29.67;nan
6194;BME280;3130;41.564;23.280;2023-09-19T12:44:47;98687.81;;;29.62;nan
6194;BME280;3130;41.564;23.280;2023-09-19T12:47:18;98721.41;;;29.79;nan
6194;BME280;3130;41.564;23.280;2023-09-19T12:50:10;98723.69;;;29.76;nan
6194;BME280;3130;41.564;23.280;2023-09-19T12:52:41;98728.16;;;30.00;nan
6194;BME280;3130;41.564;23.280;2023-09-19T12:55:23;98702.72;;;29.99;nan
6194;BME280;3130;41.564;23.280;2023-09-19T12:57:59;98721.84;;;30.19;nan
6194;BME280;3130;41.564;23.280;2023-09-19T13:00:33;98703.50;;;30.24;nan
6194;BME280;3130;41.564;23.280;2023-09-19T13:03:15;98698.69;;;30.32;nan
6194;BME280;3130;41.564;23.280;2023-09-19T13:05:54;98714.66;;;30.44;nan
6194;BME280;3130;41.564;23.280;2023-09-19T13:08:24;98720.69;;;30.51;nan
6194;BME280;3130;41.564;23.280;2023-09-19T13:11:08;98671.88;;;30.29;nan
6194;BME280;3130;41.564;23.280;2023-09-19T13:13:41;98703.69;;;30.40;nan
6194;BME280;3130;41.564;23.280;2023-09-19T13:16:10;98707.75;;;30.43;nan
6194;BME280;3130;41.564;23.280;2023-09-19T13:18:47;98699.13;;;30.47;nan
6194;BME280;3130;41.564;23.280;2023-09-19T13:21:27;98697.00;;;30.38;nan
6194;BME280;3130;41.564;23.280;2023-09-19T13:23:56;98637.78;;;30.03;nan
6194;BME280;3130;41.564;23.280;2023-09-19T13:26:43;98688.09;;;30.50;nan
6194;BME280;3130;41.564;23.280;2023-09-19T13:29:10;98692.75;;;30.55;nan
6194;BME280;3130;41.564;23.280;2023-09-19T13:31:37;98633.16;;;30.16;nan
6194;BME280;3130;41.564;23.280;2023-09-19T13:34:07;98695.44;;;30.48;nan
6194;BME280;3130;41.564;23.280;2023-09-19T13:36:36;98686.00;;;30.05;nan
6194;BME280;3130;41.564;23.280;2023-09-19T13:39:04;98570.91;;;29.36;nan
6194;BME280;3130;41.564;23.280;2023-09-19T13:41:32;98685.25;;;30.16;nan
6194;BME280;3130;41.564;23.280;2023-09-19T13:44:02;98687.88;;;30.16;nan
6194;BME280;3130;41.564;23.280;2023-09-19T13:46:30;98670.38;;;29.97;nan
6194;BME280;3130;41.564;23.280;2023-09-19T13:48:59;98620.47;;;29.65;nan
6194;BME280;3130;41.564;23.280;2023-09-19T13:51:28;98686.22;;;30.03;nan
6194;BME280;3130;41.564;23.280;2023-09-19T13:53:58;98630.16;;;29.71;nan
6194;BME280;3130;41.564;23.280;2023-09-19T13:56:26;98688.31;;;29.95;nan